Time;durP1;ratioP1;P1;durP2;ratioP2;P2;SDS_P1;SDS_P2;PMS_P1;PMS_P2;Temp;Humidity;BMP_temperature;BMP_pressure;BME280_temperature;BME280_humidity;BME280_pressure;Samples;Min_cycle;Max_cycle;Signal;HPM_P1;HPM_P2
2022/03/10 00:01:17;;;;;;;59.53;29.55;;;1.10;99.90;;;;;;5080223;28;20025;-76
2022/03/10 00:03:43;;;;;;;63.25;29.13;;;1.00;99.90;;;;;;5078921;28;20077;-76
2022/03/10 00:06:09;;;;;;;60.58;26.35;;;1.00;99.90;;;;;;5080370;28;20024;-76
2022/03/10 00:08:35;;;;;;;60.63;28.25;;;1.00;99.90;;;;;;5080201;28;20020;-76
2022/03/10 00:11:01;;;;;;;61.70;27.58;;;0.90;99.90;;;;;;5080328;28;20365;-75
2022/03/10 00:13:30;;;;;;;68.25;29.40;;;1.00;99.90;;;;;;5078896;28;20055;-75
2022/03/10 00:15:59;;;;;;;54.10;27.27;;;0.90;99.90;;;;;;5080148;28;20086;-76
2022/03/10 00:18:25;;;;;;;59.75;28.40;;;0.90;99.90;;;;;;5079914;28;20127;-75
2022/03/10 00:20:51;;;;;;;64.22;29.48;;;0.90;99.90;;;;;;5080101;28;20032;-76
2022/03/10 00:23:16;;;;;;;69.85;30.48;;;0.90;99.90;;;;;;5079936;28;20028;-76
2022/03/10 00:25:42;;;;;;;74.60;29.42;;;0.90;99.90;;;;;;5079931;28;20451;-76
2022/03/10 00:28:07;;;;;;;63.38;29.30;;;0.90;99.90;;;;;;5080020;28;20473;-76
2022/03/10 00:30:33;;;;;;;65.78;30.48;;;0.90;99.90;;;;;;5080035;28;20469;-76
2022/03/10 00:32:59;;;;;;;62.92;29.33;;;0.90;99.90;;;;;;5079904;28;20032;-75
2022/03/10 00:35:25;;;;;;;76.03;32.88;;;0.90;99.90;;;;;;5079818;28;20025;-75
2022/03/10 00:37:52;;;;;;;80.75;34.60;;;1.00;99.90;;;;;;5079838;28;20120;-76
2022/03/10 00:40:19;;;;;;;73.18;32.42;;;0.90;99.90;;;;;;5079876;28;20024;-76
2022/03/10 00:42:45;;;;;;;76.07;33.20;;;1.00;99.90;;;;;;5079865;28;20027;-75
2022/03/10 00:45:12;;;;;;;75.95;33.42;;;1.00;99.90;;;;;;5079791;28;20020;-75
2022/03/10 00:47:39;;;;;;;85.28;35.65;;;0.90;99.90;;;;;;5079793;28;20021;-76
2022/03/10 00:50:06;;;;;;;77.78;32.83;;;0.90;99.90;;;;;;5079833;28;20082;-76
2022/03/10 00:52:31;;;;;;;79.53;35.22;;;0.90;99.90;;;;;;5079654;28;20075;-76
2022/03/10 00:54:57;;;;;;;75.22;34.75;;;1.00;99.90;;;;;;5074386;28;20493;-76
2022/03/10 00:57:24;;;;;;;90.88;36.53;;;0.90;99.90;;;;;;5076482;28;20111;-76
2022/03/10 00:59:49;;;;;;;83.30;34.17;;;0.90;99.90;;;;;;5076430;28;20032;-76
2022/03/10 01:02:15;;;;;;;81.75;33.83;;;0.90;99.90;;;;;;5076499;28;20036;-76
2022/03/10 01:04:41;;;;;;;78.65;33.92;;;0.80;99.90;;;;;;5076419;28;20102;-76
2022/03/10 01:07:07;;;;;;;81.35;35.00;;;0.80;99.90;;;;;;5076375;28;20012;-75
2022/03/10 01:09:32;;;;;;;72.43;32.88;;;0.80;99.90;;;;;;5076373;28;20020;-76
2022/03/10 01:11:58;;;;;;;76.47;33.47;;;0.80;99.90;;;;;;5076367;28;20477;-76
2022/03/10 01:14:23;;;;;;;85.15;33.25;;;0.70;99.90;;;;;;5077002;28;20073;-74
2022/03/10 01:16:49;;;;;;;79.68;33.25;;;0.70;99.90;;;;;;5075887;28;20035;-76
2022/03/10 01:19:15;;;;;;;81.38;34.33;;;0.60;99.90;;;;;;5076338;28;20029;-76
2022/03/10 01:21:41;;;;;;;81.20;34.10;;;0.50;99.90;;;;;;5076231;28;20023;-76
2022/03/10 01:24:07;;;;;;;84.38;33.65;;;0.60;99.90;;;;;;5076022;28;20099;-76
2022/03/10 01:26:33;;;;;;;76.88;34.13;;;0.60;99.90;;;;;;5076311;28;20064;-75
2022/03/10 01:28:58;;;;;;;89.78;34.53;;;0.50;99.90;;;;;;5076126;28;20028;-75
2022/03/10 01:31:24;;;;;;;83.40;35.72;;;0.50;99.90;;;;;;5075993;28;20391;-76
2022/03/10 01:33:50;;;;;;;79.75;32.97;;;0.40;99.90;;;;;;5075847;28;20032;-76
2022/03/10 01:36:15;;;;;;;77.50;33.28;;;0.40;99.90;;;;;;5075874;28;20423;-76
2022/03/10 01:38:42;;;;;;;83.43;33.20;;;0.40;99.90;;;;;;5076032;28;20039;-76
2022/03/10 01:41:11;;;;;;;75.28;32.90;;;0.30;99.90;;;;;;5075956;28;20465;-76
2022/03/10 01:43:56;;;;;;;72.60;30.83;;;0.30;99.90;;;;;;5075727;28;20108;-76
2022/03/10 01:46:21;;;;;;;79.75;34.50;;;0.20;99.90;;;;;;5075827;28;20054;-76
2022/03/10 01:48:47;;;;;;;72.40;32.22;;;0.10;99.90;;;;;;5075662;28;20115;-75
2022/03/10 01:51:13;;;;;;;80.18;31.38;;;0.00;99.90;;;;;;5074349;28;20213;-75
2022/03/10 01:53:38;;;;;;;72.88;30.73;;;0.00;99.90;;;;;;5075477;28;20032;-76
2022/03/10 01:56:04;;;;;;;70.68;31.52;;;0.00;99.90;;;;;;5075644;28;20492;-75
2022/03/10 01:58:30;;;;;;;81.53;31.55;;;0.00;99.90;;;;;;5075350;28;20059;-76
2022/03/10 02:00:56;;;;;;;81.68;32.83;;;0.10;99.90;;;;;;5075350;28;20024;-76
2022/03/10 02:03:22;;;;;;;83.53;34.08;;;0.10;99.90;;;;;;5075306;28;20029;-76
2022/03/10 02:05:48;;;;;;;74.10;33.00;;;0.20;99.90;;;;;;5075078;28;20021;-76
2022/03/10 02:10:58;;;;;;;77.13;34.35;;;0.20;99.90;;;;;;5075123;28;20031;-76
2022/03/10 02:13:24;;;;;;;84.43;31.20;;;0.20;99.90;;;;;;5075463;28;20127;-75
2022/03/10 02:18:33;;;;;;;80.13;34.33;;;0.20;99.90;;;;;;5074914;28;20038;-76
2022/03/10 02:20:59;;;;;;;93.40;34.47;;;0.40;99.90;;;;;;5075060;28;20474;-76
2022/03/10 02:23:25;;;;;;;81.18;36.03;;;0.40;99.90;;;;;;5073702;28;20502;-76
2022/03/10 02:25:51;;;;;;;78.85;35.35;;;0.40;99.90;;;;;;5075124;28;20027;-76
2022/03/10 02:28:18;;;;;;;84.32;34.38;;;0.40;99.90;;;;;;5075138;28;20021;-76
2022/03/10 02:30:44;;;;;;;84.28;33.80;;;0.40;99.90;;;;;;5073404;28;20037;-76
2022/03/10 02:33:09;;;;;;;82.78;35.72;;;0.40;99.90;;;;;;5074803;28;20021;-76
2022/03/10 02:35:35;;;;;;;87.80;35.38;;;0.50;99.90;;;;;;5075125;28;20411;-76
2022/03/10 02:38:01;;;;;;;97.65;38.30;;;0.50;99.90;;;;;;5074691;28;20036;-76
2022/03/10 02:40:27;;;;;;;86.88;35.35;;;0.50;99.90;;;;;;5074676;28;20090;-76
2022/03/10 02:42:54;;;;;;;87.10;34.30;;;0.40;99.90;;;;;;5074749;28;20047;-76
2022/03/10 02:45:19;;;;;;;80.28;32.33;;;0.40;99.90;;;;;;5074635;28;20033;-75
2022/03/10 02:47:45;;;;;;;83.57;33.65;;;0.40;99.90;;;;;;5074718;28;20023;-76
2022/03/10 02:50:11;;;;;;;73.57;31.75;;;0.30;99.90;;;;;;5074323;28;20021;-76
2022/03/10 02:52:37;;;;;;;77.05;32.35;;;0.20;99.90;;;;;;5074521;28;20028;-74
2022/03/10 02:55:04;;;;;;;67.55;30.77;;;0.10;99.90;;;;;;5074279;28;20025;-75
2022/03/10 02:57:31;;;;;;;76.55;32.03;;;0.00;99.90;;;;;;5074096;28;20028;-76
2022/03/10 02:59:58;;;;;;;73.88;32.80;;;0.00;99.90;;;;;;5074239;28;20025;-76
2022/03/10 03:02:23;;;;;;;72.40;29.88;;;0.00;99.90;;;;;;5074213;28;20020;-76
2022/03/10 03:04:49;;;;;;;75.65;32.25;;;0.00;99.90;;;;;;5074130;28;20385;-76
2022/03/10 03:07:15;;;;;;;70.05;28.83;;;0.00;99.90;;;;;;5074189;28;20048;-76
2022/03/10 03:09:40;;;;;;;74.65;31.42;;;-0.10;99.90;;;;;;5074135;28;20373;-76
2022/03/10 03:12:06;;;;;;;67.55;31.17;;;-0.10;99.90;;;;;;5074378;28;20025;-76
2022/03/10 03:14:32;;;;;;;68.22;30.05;;;-0.10;99.90;;;;;;5073998;28;20036;-76
2022/03/10 03:16:57;;;;;;;67.90;29.80;;;-0.20;99.90;;;;;;5074051;28;20112;-76
2022/03/10 03:19:24;;;;;;;75.07;30.48;;;-0.20;99.90;;;;;;5073780;28;20051;-74
2022/03/10 03:21:50;;;;;;;74.15;30.90;;;-0.10;99.90;;;;;;5073978;28;20065;-74
2022/03/10 03:24:17;;;;;;;74.50;31.63;;;-0.10;99.90;;;;;;5073845;28;20017;-75
2022/03/10 03:26:42;;;;;;;78.75;32.75;;;-0.10;99.90;;;;;;5073741;28;20020;-75
2022/03/10 03:29:08;;;;;;;74.70;31.30;;;-0.10;99.90;;;;;;5073876;28;20373;-75
2022/03/10 03:31:33;;;;;;;77.35;29.80;;;-0.10;99.90;;;;;;5073776;28;20024;-75
2022/03/10 03:33:59;;;;;;;67.53;28.48;;;-0.20;99.90;;;;;;5073762;28;20029;-75
2022/03/10 03:36:25;;;;;;;68.50;28.95;;;-0.20;99.90;;;;;;5073646;28;20024;-75
2022/03/10 03:38:51;;;;;;;77.40;31.17;;;-0.10;99.90;;;;;;5073740;28;20423;-75
2022/03/10 03:41:16;;;;;;;70.70;30.33;;;-0.10;99.90;;;;;;5073691;28;20016;-74
2022/03/10 03:43:42;;;;;;;84.53;30.95;;;-0.10;99.90;;;;;;5074006;28;20021;-75
2022/03/10 03:46:09;;;;;;;76.38;30.70;;;0.00;99.90;;;;;;5073517;28;20021;-75
2022/03/10 03:48:34;;;;;;;67.15;28.50;;;0.00;99.90;;;;;;5073826;28;20168;-75
2022/03/10 03:51:00;;;;;;;84.70;31.88;;;0.10;99.90;;;;;;5074196;28;20104;-75
2022/03/10 03:53:25;;;;;;;72.03;29.23;;;0.20;99.90;;;;;;5074909;28;20378;-75
2022/03/10 03:55:51;;;;;;;74.55;30.67;;;0.10;99.90;;;;;;5074424;28;20095;-75
2022/03/10 03:58:17;;;;;;;76.88;30.83;;;0.10;99.90;;;;;;5073508;28;20032;-75
2022/03/10 04:00:42;;;;;;;68.15;29.63;;;0.10;99.90;;;;;;5073627;28;20020;-75
2022/03/10 04:03:11;;;;;;;68.13;30.83;;;0.20;99.90;;;;;;5073812;28;20104;-75
2022/03/10 04:05:38;;;;;;;77.07;30.95;;;0.10;99.90;;;;;;5073372;28;20060;-75
2022/03/10 04:08:05;;;;;;;76.90;29.98;;;0.10;99.90;;;;;;5073480;28;20028;-75
2022/03/10 04:10:31;;;;;;;72.43;31.80;;;0.10;99.90;;;;;;5072668;28;20021;-75
2022/03/10 04:12:57;;;;;;;66.03;30.20;;;0.10;99.90;;;;;;5073407;28;20043;-75
2022/03/10 04:15:22;;;;;;;77.95;31.23;;;0.10;99.90;;;;;;5073803;28;20067;-75
2022/03/10 04:17:48;;;;;;;66.55;30.35;;;0.00;99.90;;;;;;5073456;28;20025;-75
2022/03/10 04:20:14;;;;;;;67.57;26.92;;;-0.10;99.90;;;;;;5073342;28;20033;-75
2022/03/10 04:22:40;;;;;;;67.95;28.35;;;-0.20;99.90;;;;;;5073536;28;20024;-75
2022/03/10 04:25:07;;;;;;;66.88;27.73;;;-0.20;99.90;;;;;;5073369;28;20029;-75
2022/03/10 04:27:32;;;;;;;58.60;26.17;;;-0.30;99.90;;;;;;5073168;28;20044;-75
2022/03/10 04:29:58;;;;;;;69.43;29.58;;;-0.30;99.90;;;;;;5075855;28;20032;-75
2022/03/10 04:32:25;;;;;;;68.45;28.38;;;-0.30;99.90;;;;;;5077036;28;20029;-75
2022/03/10 04:34:50;;;;;;;64.60;28.17;;;-0.20;99.90;;;;;;5077177;28;20415;-74
2022/03/10 04:37:16;;;;;;;66.45;28.05;;;-0.20;99.90;;;;;;5076779;28;20020;-75
2022/03/10 04:39:41;;;;;;;70.40;31.02;;;-0.20;99.90;;;;;;5077037;28;20017;-75
2022/03/10 04:42:07;;;;;;;67.53;29.05;;;-0.10;99.90;;;;;;5076713;28;20028;-75
2022/03/10 04:44:33;;;;;;;66.35;29.63;;;-0.10;99.90;;;;;;5076804;28;20029;-74
2022/03/10 04:46:58;;;;;;;69.20;28.65;;;-0.10;99.90;;;;;;5076894;28;20381;-74
2022/03/10 04:49:24;;;;;;;70.35;29.02;;;-0.20;99.90;;;;;;5076620;28;20142;-75
2022/03/10 04:51:49;;;;;;;70.07;29.63;;;-0.20;99.90;;;;;;5076703;28;20028;-75
2022/03/10 04:54:15;;;;;;;63.20;27.80;;;-0.10;99.90;;;;;;5076509;28;20035;-75
2022/03/10 04:56:41;;;;;;;66.55;29.45;;;-0.10;99.90;;;;;;5076587;28;20029;-75
2022/03/10 04:59:06;;;;;;;70.18;29.67;;;0.00;99.90;;;;;;5076455;28;20021;-75
2022/03/10 05:01:32;;;;;;;69.63;28.83;;;0.00;99.90;;;;;;5076491;28;20025;-75
2022/03/10 05:03:57;;;;;;;74.97;29.85;;;0.00;99.90;;;;;;5076933;28;20350;-75
2022/03/10 05:06:23;;;;;;;80.93;31.92;;;0.00;99.90;;;;;;5076337;28;20025;-75
2022/03/10 05:08:49;;;;;;;64.43;28.20;;;0.00;99.90;;;;;;5076663;28;20024;-75
2022/03/10 05:11:14;;;;;;;66.60;29.98;;;0.00;99.90;;;;;;5074978;28;20036;-75
2022/03/10 05:13:40;;;;;;;68.72;28.75;;;0.00;99.90;;;;;;5076369;28;20020;-75
2022/03/10 05:16:06;;;;;;;74.40;30.23;;;-0.10;99.90;;;;;;5076102;28;20435;-75
2022/03/10 05:18:31;;;;;;;65.70;28.52;;;-0.10;99.90;;;;;;5076131;28;20040;-75
2022/03/10 05:20:57;;;;;;;69.18;28.25;;;-0.10;99.90;;;;;;5074852;28;20020;-75
2022/03/10 05:23:22;;;;;;;65.70;29.38;;;-0.20;99.90;;;;;;5075939;28;20029;-75
2022/03/10 05:25:48;;;;;;;71.70;28.55;;;-0.20;99.90;;;;;;5076025;28;20074;-75
2022/03/10 05:28:14;;;;;;;65.68;28.20;;;-0.20;99.90;;;;;;5076197;28;20074;-75
2022/03/10 05:30:41;;;;;;;72.95;29.15;;;-0.20;99.90;;;;;;5076382;28;20055;-75
2022/03/10 05:33:11;;;;;;;78.25;30.45;;;-0.20;99.90;;;;;;5075977;28;20025;-75
2022/03/10 05:35:37;;;;;;;69.13;28.83;;;-0.20;99.90;;;;;;5075722;28;20150;-75
2022/03/10 05:38:03;;;;;;;74.32;29.13;;;-0.20;99.90;;;;;;5076017;28;20063;-75
2022/03/10 05:40:28;;;;;;;71.00;28.75;;;-0.20;99.90;;;;;;5075258;28;20054;-75
2022/03/10 05:42:55;;;;;;;74.55;29.25;;;-0.20;99.90;;;;;;5076223;28;20472;-75
2022/03/10 05:45:21;;;;;;;78.10;30.40;;;-0.20;99.90;;;;;;5074412;28;20028;-75
2022/03/10 05:47:49;;;;;;;66.03;29.35;;;-0.20;99.90;;;;;;5075684;28;20036;-75
2022/03/10 05:50:15;;;;;;;71.60;28.70;;;-0.20;99.90;;;;;;5075596;28;20028;-75
2022/03/10 05:52:41;;;;;;;67.47;29.55;;;-0.20;99.90;;;;;;5075881;28;20017;-75
2022/03/10 05:55:07;;;;;;;76.32;29.65;;;-0.20;99.90;;;;;;5075530;28;20028;-75
2022/03/10 05:57:33;;;;;;;70.00;29.20;;;-0.20;99.90;;;;;;5075454;28;20024;-75
2022/03/10 05:59:59;;;;;;;75.28;30.52;;;-0.20;99.90;;;;;;5075697;28;20052;-75
2022/03/10 06:02:24;;;;;;;74.70;28.58;;;-0.10;99.90;;;;;;5075406;28;20028;-75
2022/03/10 06:04:50;;;;;;;69.03;27.45;;;-0.10;99.90;;;;;;5075547;28;20112;-75
2022/03/10 06:07:16;;;;;;;71.97;29.20;;;-0.10;99.90;;;;;;5075151;28;20025;-75
2022/03/10 06:09:42;;;;;;;68.88;27.98;;;0.00;99.90;;;;;;5075193;28;20040;-75
2022/03/10 06:12:09;;;;;;;68.45;29.15;;;0.00;99.90;;;;;;5075120;28;20469;-75
2022/03/10 06:14:35;;;;;;;61.95;27.88;;;0.10;99.90;;;;;;5076129;28;20428;-75
2022/03/10 06:17:01;;;;;;;67.10;27.75;;;0.10;99.90;;;;;;5075529;28;20124;-75
2022/03/10 06:19:27;;;;;;;61.30;27.92;;;0.10;99.90;;;;;;5075244;28;20100;-75
2022/03/10 06:21:52;;;;;;;67.47;27.77;;;0.10;99.90;;;;;;5074832;28;20107;-75
2022/03/10 06:24:18;;;;;;;59.78;27.35;;;0.00;99.90;;;;;;5074816;28;20425;-74
2022/03/10 06:26:44;;;;;;;62.33;27.25;;;0.00;99.90;;;;;;5074704;28;20366;-75
2022/03/10 06:29:09;;;;;;;65.88;28.50;;;0.10;99.90;;;;;;5075232;28;20027;-75
2022/03/10 06:31:35;;;;;;;59.45;27.38;;;0.10;99.90;;;;;;5075201;28;20056;-75
2022/03/10 06:34:01;;;;;;;59.15;25.67;;;0.00;99.90;;;;;;5074872;28;20074;-75
2022/03/10 06:36:27;;;;;;;74.32;27.85;;;0.10;99.90;;;;;;5074533;28;20028;-75
2022/03/10 06:38:56;;;;;;;64.93;28.00;;;0.10;99.90;;;;;;5074798;28;20456;-75
2022/03/10 06:41:22;;;;;;;65.07;26.30;;;0.20;99.90;;;;;;5074693;28;20024;-75
2022/03/10 06:43:47;;;;;;;63.72;27.08;;;0.20;99.90;;;;;;5074539;28;20024;-74
2022/03/10 06:46:13;;;;;;;62.90;26.45;;;0.30;99.90;;;;;;5074670;28;20025;-74
2022/03/10 06:48:39;;;;;;;60.25;26.70;;;0.40;99.90;;;;;;5074988;28;20031;-75
2022/03/10 06:51:04;;;;;;;55.30;25.90;;;0.50;99.90;;;;;;5073819;28;20032;-75
2022/03/10 06:53:30;;;;;;;57.95;26.67;;;0.60;99.90;;;;;;5074416;28;20024;-75
2022/03/10 06:55:56;;;;;;;57.25;26.17;;;0.80;99.90;;;;;;5074399;28;20036;-74
2022/03/10 06:58:21;;;;;;;61.15;27.98;;;0.90;99.90;;;;;;5072858;28;20029;-74
2022/03/10 07:00:47;;;;;;;56.78;26.70;;;1.00;99.90;;;;;;5074247;28;20025;-75
2022/03/10 07:03:13;;;;;;;59.25;27.38;;;1.10;99.90;;;;;;5074540;28;20465;-74
2022/03/10 07:05:39;;;;;;;58.05;25.05;;;1.30;99.90;;;;;;5074156;28;20025;-74
2022/03/10 07:08:05;;;;;;;65.47;26.13;;;1.40;99.90;;;;;;5074034;28;20078;-74
2022/03/10 07:10:30;;;;;;;51.85;25.30;;;1.50;99.90;;;;;;5074002;28;20025;-74
2022/03/10 07:12:56;;;;;;;54.30;24.85;;;1.70;99.90;;;;;;5073948;28;20542;-73
2022/03/10 07:15:22;;;;;;;48.80;24.70;;;1.90;99.90;;;;;;5073871;28;20112;-74
2022/03/10 07:17:48;;;;;;;56.67;26.45;;;2.10;99.90;;;;;;5072628;28;20078;-74
2022/03/10 07:20:14;;;;;;;55.90;23.60;;;2.20;99.90;;;;;;5073781;28;20024;-74
2022/03/10 07:22:39;;;;;;;48.65;24.35;;;2.40;99.90;;;;;;5074311;28;20483;-74
2022/03/10 07:25:08;;;;;;;51.83;22.67;;;2.50;99.90;;;;;;5073750;28;20047;-74
2022/03/10 07:27:34;;;;;;;49.70;22.05;;;2.70;99.90;;;;;;5073677;28;20098;-74
2022/03/10 07:30:00;;;;;;;50.92;23.40;;;2.80;99.90;;;;;;5073489;28;20481;-73
2022/03/10 07:32:29;;;;;;;40.83;21.55;;;3.00;99.90;;;;;;5073822;28;20017;-73
2022/03/10 07:34:54;;;;;;;45.45;22.05;;;3.20;99.90;;;;;;5073706;28;20029;-74
2022/03/10 07:37:20;;;;;;;48.63;22.77;;;3.40;99.90;;;;;;5073507;28;20024;-75
2022/03/10 07:39:45;;;;;;;45.42;21.17;;;3.60;99.90;;;;;;5073699;28;20105;-74
2022/03/10 07:42:11;;;;;;;41.65;20.23;;;3.80;99.90;;;;;;5073981;28;20028;-74
2022/03/10 07:44:37;;;;;;;40.38;20.00;;;3.90;99.90;;;;;;5073649;28;20387;-74
2022/03/10 07:47:02;;;;;;;45.13;21.67;;;4.00;99.90;;;;;;5073560;28;20533;-74
2022/03/10 07:49:29;;;;;;;42.60;21.10;;;4.20;99.90;;;;;;5073629;28;20028;-74
2022/03/10 07:51:55;;;;;;;38.72;19.55;;;4.30;99.90;;;;;;5073500;28;20040;-74
2022/03/10 07:54:22;;;;;;;44.08;20.88;;;4.40;99.90;;;;;;5073595;28;20028;-74
2022/03/10 07:56:48;;;;;;;38.50;20.75;;;4.60;99.90;;;;;;5073416;28;20052;-74
2022/03/10 07:59:13;;;;;;;37.10;20.70;;;4.70;99.90;;;;;;5073465;28;20071;-75
2022/03/10 08:01:39;;;;;;;39.85;19.95;;;4.80;99.90;;;;;;5073567;28;20021;-74
2022/03/10 08:04:05;;;;;;;37.33;19.17;;;5.00;99.90;;;;;;5076458;28;20070;-73
2022/03/10 08:06:31;;;;;;;42.95;20.08;;;5.20;99.90;;;;;;5077263;28;20426;-74
2022/03/10 08:08:56;;;;;;;44.67;19.40;;;5.40;99.90;;;;;;5077902;28;20456;-74
2022/03/10 08:11:22;;;;;;;35.80;19.02;;;5.50;99.90;;;;;;5077257;28;20385;-74
2022/03/10 08:13:47;;;;;;;48.03;21.38;;;5.60;99.90;;;;;;5077841;28;20104;-74
2022/03/10 08:16:14;;;;;;;34.95;17.30;;;5.80;99.90;;;;;;5077202;28;20066;-74
2022/03/10 08:18:39;;;;;;;33.55;18.33;;;5.90;99.90;;;;;;5077161;28;20027;-74
2022/03/10 08:21:05;;;;;;;34.92;18.92;;;6.10;99.90;;;;;;5077441;28;20020;-74
2022/03/10 08:23:30;;;;;;;36.75;17.08;;;6.30;99.90;;;;;;5077028;28;20158;-74
2022/03/10 08:25:56;;;;;;;32.55;16.95;;;6.40;99.90;;;;;;5077103;28;20052;-74
2022/03/10 08:28:22;;;;;;;30.80;16.77;;;6.50;99.90;;;;;;5076949;28;20031;-73
2022/03/10 08:30:48;;;;;;;31.98;16.50;;;6.60;99.90;;;;;;5077062;28;20423;-74
2022/03/10 08:33:13;;;;;;;30.05;17.20;;;6.80;99.90;;;;;;5076770;28;20028;-74
2022/03/10 08:35:39;;;;;;;30.27;16.73;;;6.90;99.90;;;;;;5077100;28;20036;-74
2022/03/10 08:38:05;;;;;;;33.72;16.17;;;7.00;99.90;;;;;;5077570;28;20032;-74
2022/03/10 08:40:30;;;;;;;29.10;15.90;;;7.10;99.90;;;;;;5077272;28;20070;-74
2022/03/10 08:42:56;;;;;;;42.00;17.45;;;7.30;99.90;;;;;;5076769;28;20469;-74
2022/03/10 08:45:25;;;;;;;27.65;15.55;;;7.40;99.90;;;;;;5075415;28;20365;-74
2022/03/10 08:47:51;;;;;;;28.65;16.80;;;7.40;99.90;;;;;;5076605;28;20022;-73
2022/03/10 08:50:17;;;;;;;28.35;15.55;;;7.60;99.90;;;;;;5075314;28;20093;-74
2022/03/10 08:52:42;;;;;;;29.17;16.58;;;7.70;99.90;;;;;;5075224;28;20094;-74
2022/03/10 08:55:09;;;;;;;32.35;16.88;;;7.80;99.90;;;;;;5076503;28;20519;-74
2022/03/10 08:57:34;;;;;;;36.95;16.15;;;8.00;99.90;;;;;;5076643;28;20036;-74
2022/03/10 09:00:00;;;;;;;32.10;16.30;;;8.00;99.90;;;;;;5076462;28;20025;-74
2022/03/10 09:02:26;;;;;;;27.00;16.05;;;8.20;99.90;;;;;;5076525;28;20055;-73
2022/03/10 09:04:51;;;;;;;31.63;15.45;;;8.30;99.90;;;;;;5077237;28;20142;-73
2022/03/10 09:07:17;;;;;;;31.65;15.13;;;8.40;99.90;;;;;;5076656;28;20049;-73
2022/03/10 09:09:42;;;;;;;25.85;15.45;;;8.50;99.90;;;;;;5076451;28;20028;-74
2022/03/10 09:12:08;;;;;;;31.13;14.57;;;8.60;99.90;;;;;;5076321;28;20035;-74
2022/03/10 09:14:34;;;;;;;22.83;13.88;;;8.90;99.90;;;;;;5075219;28;20032;-74
2022/03/10 09:17:00;;;;;;;27.02;13.70;;;9.00;99.90;;;;;;5076476;28;20034;-74
2022/03/10 09:19:25;;;;;;;34.92;15.88;;;9.00;99.90;;;;;;5076029;28;20072;-74
2022/03/10 09:21:51;;;;;;;34.47;14.68;;;9.20;99.90;;;;;;5076285;28;20046;-74
2022/03/10 09:24:17;;;;;;;33.40;14.43;;;9.30;99.90;;;;;;5076109;28;20020;-74
2022/03/10 09:26:43;;;;;;;32.65;14.20;;;9.30;99.90;;;;;;5075868;28;20025;-74
2022/03/10 09:29:08;;;;;;;26.30;14.48;;;9.30;99.90;;;;;;5076405;28;20354;-74
2022/03/10 09:31:34;;;;;;;30.38;15.07;;;9.40;99.90;;;;;;5076420;28;20103;-74
2022/03/10 09:34:00;;;;;;;22.98;13.65;;;9.60;99.90;;;;;;5076243;28;20040;-74
2022/03/10 09:36:26;;;;;;;24.60;13.27;;;9.80;99.90;;;;;;5075820;28;20028;-74
2022/03/10 09:38:55;;;;;;;25.65;13.52;;;9.90;99.90;;;;;;5075760;28;20047;-74
2022/03/10 09:41:21;;;;;;;31.77;14.50;;;10.00;99.90;;;;;;5075724;28;20028;-74
2022/03/10 09:43:48;;;;;;;24.80;14.18;;;10.20;99.90;;;;;;5075930;28;20020;-74
2022/03/10 09:46:14;;;;;;;25.80;14.05;;;10.20;99.90;;;;;;5075467;28;20021;-74
2022/03/10 09:48:40;;;;;;;22.75;13.10;;;10.50;99.90;;;;;;5075593;28;20016;-74
2022/03/10 09:51:07;;;;;;;25.75;13.48;;;10.50;99.90;;;;;;5075481;28;20029;-74
2022/03/10 09:53:34;;;;;;;21.33;12.77;;;10.60;99.90;;;;;;5075702;28;20423;-74
2022/03/10 09:56:02;;;;;;;23.98;13.35;;;10.70;99.90;;;;;;5075646;28;20025;-74
2022/03/10 09:58:28;;;;;;;25.20;12.48;;;10.80;99.90;;;;;;5075169;28;20115;-74
2022/03/10 10:01:00;;;;;;;20.65;12.00;;;10.90;99.90;;;;;;5075810;28;20060;-74
2022/03/10 10:03:26;;;;;;;24.88;13.15;;;10.90;99.90;;;;;;5073878;28;20392;-74
2022/03/10 10:05:58;;;;;;;27.30;13.75;;;10.80;99.90;;;;;;5074082;28;20016;-74
2022/03/10 10:08:24;;;;;;;23.65;12.95;;;10.90;99.90;;;;;;5075444;28;20059;-74
2022/03/10 10:10:51;;;;;;;23.63;12.10;;;11.10;99.90;;;;;;5075239;28;20029;-74
2022/03/10 10:13:24;;;;;;;25.60;12.23;;;11.30;99.90;;;;;;5075475;28;20028;-74
2022/03/10 10:16:03;;;;;;;20.70;12.45;;;11.50;99.90;;;;;;5074751;28;20028;-74
2022/03/10 10:18:30;;;;;;;30.45;12.50;;;11.40;99.90;;;;;;5074782;28;20103;-74
2022/03/10 10:20:56;;;;;;;23.05;12.85;;;11.50;99.90;;;;;;5074770;28;20100;-74
2022/03/10 10:23:26;;;;;;;26.20;12.80;;;11.60;99.90;;;;;;5074685;28;20477;-74
2022/03/10 10:26:05;;;;;;;22.55;11.98;;;11.50;99.90;;;;;;5075045;28;20024;-74
2022/03/10 10:28:33;;;;;;;25.60;12.82;;;11.60;99.90;;;;;;5074848;28;20029;-74
2022/03/10 10:31:05;;;;;;;21.98;12.52;;;11.90;99.90;;;;;;5074512;28;20021;-74
2022/03/10 10:33:35;;;;;;;25.60;12.05;;;12.20;99.90;;;;;;5074615;28;20029;-74
2022/03/10 10:36:17;;;;;;;35.30;13.95;;;12.20;99.90;;;;;;5074404;28;20119;-74
2022/03/10 10:38:45;;;;;;;18.23;11.30;;;12.50;99.90;;;;;;5074294;28;20482;-74
2022/03/10 10:41:30;;;;;;;25.98;11.93;;;12.70;99.90;;;;;;5074386;28;20104;-74
2022/03/10 10:44:01;;;;;;;20.10;11.20;;;12.70;99.90;;;;;;5074363;28;20056;-74
2022/03/10 10:46:28;;;;;;;22.35;12.02;;;12.70;99.90;;;;;;5074236;28;20530;-74
2022/03/10 10:48:55;;;;;;;20.95;12.52;;;12.60;99.90;;;;;;5074212;28;20405;-74
2022/03/10 10:51:41;;;;;;;18.92;12.00;;;13.00;99.90;;;;;;5074192;28;20032;-74
2022/03/10 10:54:26;;;;;;;20.27;11.25;;;13.10;99.90;;;;;;5072919;28;20020;-74
2022/03/10 10:57:03;;;;;;;22.83;12.45;;;13.30;99.90;;;;;;5072859;28;20496;-75
2022/03/10 10:59:40;;;;;;;21.83;12.02;;;13.40;99.90;;;;;;5074732;28;20020;-75
2022/03/10 11:02:17;;;;;;;21.40;11.30;;;13.60;99.90;;;;;;5073897;28;20051;-75
2022/03/10 11:04:51;;;;;;;20.92;11.35;;;13.60;99.90;;;;;;5074596;28;20492;-75
2022/03/10 11:07:17;;;;;;;19.60;11.27;;;13.50;99.90;;;;;;5074159;28;20032;-74
2022/03/10 11:09:45;;;;;;;22.60;11.98;;;13.60;99.90;;;;;;5074295;28;20020;-74
2022/03/10 11:12:13;;;;;;;27.15;12.73;;;13.60;99.90;;;;;;5073989;28;20031;-74
2022/03/10 11:14:40;;;;;;;20.30;11.52;;;13.80;99.90;;;;;;5074045;28;20020;-74
2022/03/10 11:17:06;;;;;;;29.52;13.02;;;13.90;99.90;;;;;;5073801;28;20086;-74
2022/03/10 11:19:35;;;;;;;25.02;12.57;;;13.60;99.90;;;;;;5074193;28;20465;-74
2022/03/10 11:22:27;;;;;;;24.60;13.95;;;13.40;99.90;;;;;;5073991;28;20021;-74
2022/03/10 11:25:08;;;;;;;27.95;15.70;;;13.80;99.90;;;;;;5073891;28;20381;-74
2022/03/10 11:27:38;;;;;;;30.00;16.30;;;14.10;99.90;;;;;;5074109;28;20027;-74
2022/03/10 11:30:06;;;;;;;38.15;17.42;;;14.20;99.90;;;;;;5074073;28;20056;-74
2022/03/10 11:32:32;;;;;;;31.48;15.45;;;14.40;99.90;;;;;;5073996;28;20108;-74
2022/03/10 11:35:00;;;;;;;30.30;14.10;;;14.30;99.90;;;;;;5073804;28;20069;-74
2022/03/10 11:37:50;;;;;;;26.40;14.25;;;14.10;99.90;;;;;;5073051;28;20104;-74
2022/03/10 11:40:19;;;;;;;29.25;15.00;;;14.30;99.90;;;;;;5073899;28;20012;-74
2022/03/10 11:42:45;;;;;;;27.35;14.90;;;14.30;99.90;;;;;;5073927;28;20384;-74
2022/03/10 11:45:15;;;;;;;23.77;13.52;;;14.60;99.90;;;;;;5073445;28;20028;-74
2022/03/10 11:47:41;;;;;;;29.40;14.60;;;14.90;99.90;;;;;;5073633;28;20086;-74
2022/03/10 11:50:22;;;;;;;25.30;14.82;;;15.20;99.90;;;;;;5073564;28;20021;-75
2022/03/10 11:52:55;;;;;;;23.98;13.85;;;15.10;99.90;;;;;;5073852;28;20070;-74
2022/03/10 11:55:22;;;;;;;30.35;14.57;;;15.30;99.90;;;;;;5073459;28;20025;-74
2022/03/10 11:57:54;;;;;;;24.55;14.43;;;15.80;99.90;;;;;;5073412;28;20033;-74
2022/03/10 12:00:49;;;;;;;26.30;14.75;;;16.10;99.90;;;;;;5073575;28;20113;-75
2022/03/10 12:03:20;;;;;;;27.67;15.35;;;16.40;99.80;;;;;;5071615;28;20103;-74
2022/03/10 12:06:01;;;;;;;22.88;13.55;;;16.20;97.60;;;;;;5073632;28;20032;-75
2022/03/10 12:08:30;;;;;;;29.67;14.05;;;16.20;98.30;;;;;;5073450;28;20064;-74
2022/03/10 12:10:57;;;;;;;25.05;14.57;;;16.10;96.50;;;;;;5073870;28;20423;-74
2022/03/10 12:13:30;;;;;;;23.73;14.63;;;16.30;94.60;;;;;;5073705;28;20031;-74
2022/03/10 12:15:57;;;;;;;31.95;15.40;;;16.50;93.90;;;;;;5073428;28;20115;-74
2022/03/10 12:18:38;;;;;;;26.33;14.73;;;16.80;94.90;;;;;;5073469;28;20037;-74
2022/03/10 12:21:22;;;;;;;25.27;15.13;;;17.20;94.80;;;;;;5073799;28;20024;-74
2022/03/10 12:24:00;;;;;;;29.15;15.75;;;17.30;93.00;;;;;;5073274;28;20530;-74
2022/03/10 12:26:36;;;;;;;24.90;15.55;;;17.10;91.90;;;;;;5073105;28;20029;-74
2022/03/10 12:29:07;;;;;;;28.70;15.93;;;16.90;91.80;;;;;;5073258;28;20025;-74
2022/03/10 12:31:35;;;;;;;26.83;16.00;;;17.30;92.20;;;;;;5073533;28;20538;-74
2022/03/10 12:34:14;;;;;;;27.77;16.30;;;17.30;90.50;;;;;;5073194;28;20028;-74
2022/03/10 12:36:42;;;;;;;27.42;15.07;;;17.20;90.60;;;;;;5073132;28;20023;-74
2022/03/10 12:39:14;;;;;;;32.63;15.27;;;17.20;91.60;;;;;;5073339;28;20043;-74